createdAt,value
2019-01-30T00:00:55.782Z,0
2019-01-30T00:01:57.159Z,0
2019-01-30T00:02:58.540Z,0
2019-01-30T00:03:59.923Z,0
2019-01-30T00:05:01.297Z,0
2019-01-30T00:06:02.678Z,0
2019-01-30T00:07:04.059Z,0
2019-01-30T00:08:05.433Z,0
2019-01-30T00:09:06.807Z,0
2019-01-30T00:10:08.187Z,0
2019-01-30T00:11:09.565Z,0
2019-01-30T00:12:10.938Z,0
2019-01-30T00:13:12.313Z,0
2019-01-30T00:14:13.696Z,0
2019-01-30T00:15:15.072Z,0
2019-01-30T00:16:16.451Z,0
2019-01-30T00:17:17.830Z,0
2019-01-30T00:18:19.208Z,0
2019-01-30T00:19:20.585Z,0
2019-01-30T00:20:21.967Z,0
2019-01-30T00:21:23.345Z,0
2019-01-30T00:22:24.722Z,0
2019-01-30T00:23:26.105Z,0
2019-01-30T00:24:27.482Z,0
2019-01-30T00:25:28.859Z,0
2019-01-30T00:26:30.233Z,0
2019-01-30T00:27:31.608Z,0
2019-01-30T00:28:33.000Z,0
2019-01-30T00:29:34.381Z,0
2019-01-30T00:30:35.768Z,0
2019-01-30T00:31:37.152Z,0
2019-01-30T00:32:38.536Z,0
2019-01-30T00:33:39.916Z,0
2019-01-30T00:34:41.293Z,0
2019-01-30T00:35:42.675Z,0
2019-01-30T00:36:44.050Z,0
2019-01-30T00:37:45.429Z,0
2019-01-30T00:38:46.804Z,0
2019-01-30T00:39:48.189Z,0
2019-01-30T00:40:49.568Z,0
2019-01-30T00:41:50.947Z,0
2019-01-30T00:42:52.331Z,0
2019-01-30T00:43:53.713Z,0
2019-01-30T00:44:55.092Z,0
2019-01-30T00:45:56.468Z,0
2019-01-30T00:46:57.852Z,0
2019-01-30T00:47:59.232Z,0
2019-01-30T00:49:00.605Z,0
2019-01-30T00:50:02.044Z,0
2019-01-30T00:51:03.434Z,0
2019-01-30T00:52:04.891Z,0
2019-01-30T00:53:06.152Z,0
2019-01-30T00:54:07.530Z,0
2019-01-30T00:55:08.904Z,0
2019-01-30T00:56:10.280Z,0
2019-01-30T00:57:11.654Z,0
2019-01-30T00:58:13.039Z,0
2019-01-30T00:59:14.414Z,0
2019-01-30T01:00:15.799Z,0
2019-01-30T01:01:17.182Z,0
2019-01-30T01:02:18.559Z,0
2019-01-30T01:03:19.940Z,0
2019-01-30T01:04:21.315Z,0
2019-01-30T01:05:22.693Z,0
2019-01-30T01:06:24.071Z,0
2019-01-30T01:07:25.444Z,0
2019-01-30T01:08:26.828Z,0
2019-01-30T01:09:28.204Z,0
2019-01-30T01:10:29.581Z,0
2019-01-30T01:11:30.957Z,0
2019-01-30T01:12:32.334Z,0
2019-01-30T01:13:33.710Z,0
2019-01-30T01:14:35.089Z,0
2019-01-30T01:15:36.472Z,0
2019-01-30T01:16:37.845Z,0
2019-01-30T01:17:39.224Z,0
2019-01-30T01:18:40.598Z,0
2019-01-30T01:19:41.977Z,0
2019-01-30T01:20:43.349Z,0
2019-01-30T01:21:44.817Z,0
2019-01-30T01:22:46.068Z,0
2019-01-30T01:23:47.447Z,0
2019-01-30T01:24:48.828Z,0
2019-01-30T01:25:50.206Z,0
2019-01-30T01:26:51.588Z,0
2019-01-30T01:27:52.969Z,0
2019-01-30T01:28:54.355Z,0
2019-01-30T01:29:55.736Z,0
2019-01-30T01:30:57.114Z,0
2019-01-30T01:31:58.489Z,0
2019-01-30T01:32:59.869Z,0
2019-01-30T01:34:01.245Z,0
2019-01-30T01:35:02.622Z,0
2019-01-30T01:36:03.998Z,0
2019-01-30T01:42:24.753Z,0
2019-01-30T01:44:07.304Z,0
2019-01-30T01:45:08.684Z,0
2019-01-30T01:46:31.236Z,0
2019-01-30T01:47:32.638Z,0
2019-01-30T01:48:54.211Z,0
2019-01-30T01:49:55.592Z,0
2019-01-30T01:51:17.161Z,0
2019-01-30T01:52:18.544Z,0
2019-01-30T01:53:41.126Z,0
2019-01-30T01:54:42.510Z,0
2019-01-30T01:56:04.067Z,0
2019-01-30T01:57:05.448Z,0
2019-01-30T01:58:27.045Z,0
2019-01-30T01:59:28.435Z,0
2019-01-30T02:00:49.999Z,0
2019-01-30T02:01:51.397Z,0
2019-01-30T02:03:12.988Z,0
2019-01-30T02:04:14.371Z,0
2019-01-30T02:05:36.924Z,0
2019-01-30T02:06:38.303Z,0
2019-01-30T02:08:00.920Z,0
2019-01-30T02:09:02.302Z,0
2019-01-30T02:10:24.859Z,0
2019-01-30T02:11:26.238Z,0
2019-01-30T02:12:48.793Z,0
2019-01-30T02:13:50.171Z,0
2019-01-30T02:15:11.779Z,0
2019-01-30T02:16:13.147Z,0
2019-01-30T02:17:14.529Z,0
2019-01-30T02:18:15.916Z,0
2019-01-30T02:19:17.301Z,0
2019-01-30T02:20:18.678Z,0
2019-01-30T02:21:20.064Z,0
2019-01-30T02:22:21.446Z,0
2019-01-30T02:23:22.825Z,0
2019-01-30T02:24:24.202Z,0
2019-01-30T02:25:25.582Z,0
2019-01-30T02:26:26.969Z,0
2019-01-30T02:27:28.349Z,0
2019-01-30T02:28:29.733Z,0
2019-01-30T02:29:31.119Z,0
2019-01-30T02:30:32.500Z,0
2019-01-30T02:31:33.880Z,0
2019-01-30T02:32:35.265Z,0
2019-01-30T02:33:36.646Z,0
2019-01-30T02:34:38.029Z,0
2019-01-30T02:35:39.413Z,0
2019-01-30T02:36:40.792Z,0
2019-01-30T02:37:42.171Z,0
2019-01-30T02:38:43.559Z,0
2019-01-30T02:39:44.944Z,0
2019-01-30T02:40:46.333Z,0
2019-01-30T02:41:47.714Z,0
2019-01-30T02:42:49.097Z,0
2019-01-30T02:43:50.508Z,0
2019-01-30T02:44:51.887Z,0
2019-01-30T02:45:53.268Z,0
2019-01-30T02:46:54.662Z,0
2019-01-30T02:47:56.047Z,0
2019-01-30T02:48:57.428Z,0
2019-01-30T02:49:58.820Z,0
2019-01-30T02:51:00.204Z,0
2019-01-30T02:52:01.583Z,0
2019-01-30T02:53:02.962Z,0
2019-01-30T02:54:04.344Z,0
2019-01-30T02:55:05.734Z,0
2019-01-30T02:56:07.114Z,0
2019-01-30T02:57:08.503Z,0
2019-01-30T02:58:09.886Z,0
2019-01-30T02:59:11.268Z,0
2019-01-30T03:00:12.656Z,0
2019-01-30T03:01:14.039Z,0
2019-01-30T03:02:15.551Z,0
2019-01-30T03:03:16.953Z,0
2019-01-30T03:04:18.336Z,0
2019-01-30T03:05:19.716Z,0
2019-01-30T03:06:21.098Z,0
2019-01-30T03:07:22.485Z,0
2019-01-30T03:08:23.866Z,0
2019-01-30T03:09:25.255Z,0
2019-01-30T03:10:26.644Z,0
2019-01-30T03:11:28.027Z,0
2019-01-30T03:12:29.408Z,0
2019-01-30T03:13:30.795Z,0
2019-01-30T03:14:32.181Z,0
2019-01-30T03:15:33.564Z,0
2019-01-30T03:16:34.942Z,0
2019-01-30T03:17:36.324Z,0
2019-01-30T03:18:37.712Z,0
2019-01-30T03:19:39.102Z,0
2019-01-30T03:20:40.481Z,0
2019-01-30T03:21:41.862Z,0
2019-01-30T03:22:43.257Z,0
2019-01-30T03:23:44.642Z,0
2019-01-30T03:24:46.030Z,0
2019-01-30T03:25:47.408Z,0
2019-01-30T03:26:48.792Z,0
2019-01-30T03:27:50.171Z,0
2019-01-30T03:28:51.550Z,0
2019-01-30T03:29:52.948Z,0
2019-01-30T03:30:54.317Z,0
2019-01-30T03:31:55.697Z,0
2019-01-30T03:32:57.102Z,0
2019-01-30T03:33:58.480Z,0
2019-01-30T03:34:59.862Z,0
2019-01-30T03:36:01.245Z,0
2019-01-30T03:37:02.616Z,0
2019-01-30T03:38:04.000Z,0
2019-01-30T03:39:05.381Z,0
2019-01-30T03:40:06.762Z,0
2019-01-30T03:41:08.144Z,0
2019-01-30T03:42:09.530Z,0
2019-01-30T03:43:10.910Z,0
2019-01-30T03:44:12.287Z,0
2019-01-30T03:45:13.674Z,0
2019-01-30T03:46:15.053Z,0
2019-01-30T03:47:16.442Z,0
2019-01-30T03:48:17.786Z,0
2019-01-30T03:49:19.164Z,0
2019-01-30T03:50:20.545Z,0
2019-01-30T03:51:21.925Z,0
2019-01-30T03:52:23.304Z,0
2019-01-30T03:53:24.691Z,0
2019-01-30T03:54:26.156Z,0
2019-01-30T03:55:27.542Z,0
2019-01-30T03:56:28.926Z,0
2019-01-30T03:57:30.308Z,0
2019-01-30T03:58:31.690Z,0
2019-01-30T03:59:33.071Z,0
2019-01-30T04:00:34.451Z,0
2019-01-30T04:01:35.835Z,0
2019-01-30T04:02:37.225Z,0
2019-01-30T04:03:38.609Z,0
2019-01-30T04:04:39.994Z,0
2019-01-30T04:05:41.383Z,0
2019-01-30T04:06:42.756Z,0
2019-01-30T04:07:44.135Z,0
2019-01-30T04:08:45.523Z,0
2019-01-30T04:09:46.907Z,0
2019-01-30T04:10:48.283Z,0
2019-01-30T04:11:49.666Z,0
2019-01-30T04:12:51.057Z,0
2019-01-30T04:13:52.458Z,0
2019-01-30T04:14:53.844Z,0
2019-01-30T04:15:55.226Z,0
2019-01-30T04:16:56.611Z,0
2019-01-30T04:17:57.994Z,0
2019-01-30T04:18:59.374Z,0
2019-01-30T04:20:00.756Z,0
2019-01-30T04:21:02.139Z,0
2019-01-30T04:22:03.522Z,0
2019-01-30T04:23:04.905Z,0
2019-01-30T04:24:06.292Z,0
2019-01-30T04:25:07.682Z,0
2019-01-30T04:26:09.064Z,0
2019-01-30T04:27:10.442Z,0
2019-01-30T04:28:11.825Z,0
2019-01-30T04:29:13.210Z,0
2019-01-30T04:30:14.592Z,0
2019-01-30T04:31:15.986Z,0
2019-01-30T04:32:17.366Z,0
2019-01-30T04:33:18.752Z,0
2019-01-30T04:34:20.136Z,0
2019-01-30T04:35:21.515Z,0
2019-01-30T04:36:22.905Z,0
2019-01-30T04:37:24.322Z,0
2019-01-30T04:38:25.689Z,0
2019-01-30T04:39:27.066Z,0
2019-01-30T04:40:28.450Z,0
2019-01-30T04:41:29.830Z,0
2019-01-30T04:42:31.210Z,0
2019-01-30T04:43:32.594Z,0
2019-01-30T04:44:33.977Z,0
2019-01-30T04:45:35.357Z,0
2019-01-30T04:46:36.756Z,0
2019-01-30T04:47:38.180Z,0
2019-01-30T04:48:39.566Z,0
2019-01-30T04:49:40.954Z,0
2019-01-30T04:50:42.340Z,0
2019-01-30T04:51:43.726Z,0
2019-01-30T04:52:45.105Z,0
2019-01-30T04:53:46.490Z,0
2019-01-30T04:54:47.877Z,0
2019-01-30T04:55:49.261Z,0
2019-01-30T04:56:50.642Z,0
2019-01-30T04:57:52.033Z,0
2019-01-30T04:58:53.413Z,0
2019-01-30T04:59:54.796Z,0
2019-01-30T05:00:56.180Z,0
2019-01-30T05:01:57.563Z,0
2019-01-30T05:02:58.945Z,0
2019-01-30T05:04:00.328Z,0
2019-01-30T05:05:01.717Z,0
2019-01-30T05:06:03.098Z,0
2019-01-30T05:07:04.478Z,0
2019-01-30T05:08:05.867Z,0
2019-01-30T05:09:07.248Z,0
2019-01-30T05:10:08.633Z,0
2019-01-30T05:11:10.012Z,0
2019-01-30T05:12:11.396Z,0
2019-01-30T05:13:12.777Z,0
2019-01-30T05:14:14.160Z,0
2019-01-30T05:15:15.541Z,0
2019-01-30T05:16:16.925Z,0
2019-01-30T05:17:18.312Z,0
2019-01-30T05:18:19.689Z,0
2019-01-30T05:19:21.070Z,0
2019-01-30T05:20:22.452Z,0
2019-01-30T05:21:23.842Z,0
2019-01-30T05:22:25.223Z,0
2019-01-30T05:23:26.606Z,0
2019-01-30T05:24:27.992Z,0
2019-01-30T05:25:29.375Z,0
2019-01-30T05:26:30.759Z,0
2019-01-30T05:27:32.144Z,0
2019-01-30T05:28:33.533Z,0
2019-01-30T05:29:34.910Z,0
2019-01-30T05:30:36.296Z,0
2019-01-30T05:31:38.716Z,0
2019-01-30T05:32:40.296Z,0
2019-01-30T05:33:41.675Z,0
2019-01-30T05:34:43.053Z,0
2019-01-30T05:35:44.437Z,0
2019-01-30T05:36:45.826Z,0
2019-01-30T05:37:47.249Z,0
2019-01-30T05:38:48.672Z,0
2019-01-30T05:39:50.055Z,0
2019-01-30T05:40:51.442Z,0
2019-01-30T05:41:52.831Z,0
2019-01-30T05:42:54.225Z,0
2019-01-30T05:43:55.602Z,0
2019-01-30T05:44:56.980Z,0
2019-01-30T05:45:58.363Z,0
2019-01-30T05:46:59.746Z,0
2019-01-30T05:48:01.128Z,0
2019-01-30T05:49:02.515Z,0
2019-01-30T05:50:04.014Z,0
2019-01-30T05:51:05.389Z,0
2019-01-30T05:52:06.770Z,0
2019-01-30T05:53:08.149Z,0
2019-01-30T05:54:09.529Z,0
2019-01-30T05:55:10.910Z,0
2019-01-30T05:56:12.292Z,0
2019-01-30T05:57:13.680Z,0
2019-01-30T05:58:15.059Z,0
2019-01-30T05:59:16.437Z,0
2019-01-30T06:00:17.817Z,0
2019-01-30T06:01:19.202Z,0
2019-01-30T06:02:20.596Z,0
2019-01-30T06:03:21.982Z,0
2019-01-30T06:04:23.370Z,0
2019-01-30T06:05:24.796Z,0
2019-01-30T06:06:26.182Z,0
2019-01-30T06:07:27.563Z,0
2019-01-30T06:08:28.946Z,0
2019-01-30T06:09:30.328Z,0
2019-01-30T06:10:31.705Z,0
2019-01-30T06:11:33.091Z,0
2019-01-30T06:12:34.477Z,0
2019-01-30T06:13:35.865Z,0
2019-01-30T06:14:37.243Z,0
2019-01-30T06:15:38.626Z,0
2019-01-30T06:16:40.016Z,0
2019-01-30T06:17:41.392Z,0
2019-01-30T06:18:42.775Z,0
2019-01-30T06:19:44.166Z,0
2019-01-30T06:20:45.543Z,0
2019-01-30T06:21:46.927Z,0
2019-01-30T06:22:48.314Z,0
2019-01-30T06:23:49.697Z,0
2019-01-30T06:24:51.078Z,0
2019-01-30T06:25:52.491Z,0
2019-01-30T06:26:53.939Z,0
2019-01-30T06:27:55.321Z,0
2019-01-30T06:28:56.713Z,0
2019-01-30T06:29:58.119Z,0
2019-01-30T06:30:59.602Z,0
2019-01-30T06:32:00.992Z,0
2019-01-30T06:33:02.374Z,0
2019-01-30T06:34:03.759Z,0
2019-01-30T06:35:05.183Z,0
2019-01-30T06:36:06.560Z,0
2019-01-30T06:37:07.942Z,0
2019-01-30T06:38:09.326Z,0
2019-01-30T06:39:10.714Z,0
2019-01-30T06:40:12.099Z,0
2019-01-30T06:41:13.479Z,0
2019-01-30T06:42:14.867Z,0
2019-01-30T06:43:16.252Z,0
2019-01-30T06:44:17.639Z,0
2019-01-30T06:45:19.026Z,0
2019-01-30T06:46:20.431Z,0
2019-01-30T06:47:21.813Z,0
2019-01-30T06:48:23.235Z,0
2019-01-30T06:49:24.621Z,0
2019-01-30T06:50:26.003Z,0
2019-01-30T06:51:27.386Z,0
2019-01-30T06:52:28.774Z,0
2019-01-30T06:53:30.166Z,0
2019-01-30T06:54:31.556Z,0
2019-01-30T06:55:32.938Z,0
2019-01-30T06:56:34.337Z,0
2019-01-30T06:57:35.718Z,0
2019-01-30T06:58:37.107Z,0
2019-01-30T06:59:38.487Z,0
2019-01-30T07:00:39.874Z,0
2019-01-30T07:01:41.258Z,0
2019-01-30T07:02:43.106Z,0
2019-01-30T07:03:44.439Z,0
2019-01-30T07:04:45.821Z,0
2019-01-30T07:05:47.202Z,0
2019-01-30T07:06:48.586Z,0
2019-01-30T07:07:49.974Z,0
2019-01-30T07:08:51.365Z,0
2019-01-30T07:09:52.744Z,0
2019-01-30T07:10:54.125Z,0
2019-01-30T07:11:55.504Z,0
2019-01-30T07:12:56.893Z,0
2019-01-30T07:13:58.282Z,0
2019-01-30T07:14:59.669Z,0
2019-01-30T07:16:01.049Z,0
2019-01-30T07:17:02.427Z,0
2019-01-30T07:18:03.811Z,0
2019-01-30T07:19:05.190Z,0
2019-01-30T07:20:10.082Z,0
2019-01-30T07:21:11.474Z,0
2019-01-30T07:22:12.869Z,0
2019-01-30T07:23:14.269Z,0
2019-01-30T07:24:15.661Z,0
2019-01-30T07:25:17.048Z,0
2019-01-30T07:26:18.432Z,0
2019-01-30T07:27:19.882Z,0
2019-01-30T07:28:21.209Z,0
2019-01-30T07:29:22.627Z,0
2019-01-30T07:30:24.011Z,0
2019-01-30T07:31:25.393Z,0
2019-01-30T07:32:26.783Z,0
2019-01-30T07:33:28.171Z,0
2019-01-30T07:34:29.549Z,0
2019-01-30T07:35:30.935Z,0
2019-01-30T07:36:32.319Z,0
2019-01-30T07:37:33.710Z,0
2019-01-30T07:38:35.092Z,0
2019-01-30T07:39:36.480Z,0
2019-01-30T07:40:37.870Z,0
2019-01-30T07:41:39.256Z,0
2019-01-30T07:42:40.635Z,0
2019-01-30T07:43:42.018Z,0
2019-01-30T07:44:50.604Z,0
2019-01-30T07:45:44.751Z,0
2019-01-30T07:46:46.134Z,0
2019-01-30T07:47:47.511Z,0
2019-01-30T07:48:48.900Z,0
2019-01-30T07:49:50.314Z,0
2019-01-30T07:50:51.704Z,0
2019-01-30T07:51:53.160Z,0
2019-01-30T07:52:54.473Z,0
2019-01-30T07:53:55.869Z,0
2019-01-30T07:54:57.259Z,0
2019-01-30T07:55:58.643Z,0
2019-01-30T07:57:00.036Z,0
2019-01-30T07:58:01.414Z,5
2019-01-30T07:59:02.800Z,5
2019-01-30T08:00:04.231Z,5
2019-01-30T08:01:05.620Z,5
2019-01-30T08:02:07.011Z,5
2019-01-30T08:03:08.404Z,5
2019-01-30T08:04:09.793Z,5
2019-01-30T08:05:11.177Z,5
2019-01-30T08:06:12.572Z,5
2019-01-30T08:07:13.917Z,5
2019-01-30T08:08:15.424Z,5
2019-01-30T08:09:16.842Z,5
2019-01-30T08:10:18.229Z,5
2019-01-30T08:11:19.621Z,5
2019-01-30T08:12:21.004Z,5
2019-01-30T08:13:22.419Z,5
2019-01-30T08:14:23.801Z,5
2019-01-30T08:15:25.182Z,5
2019-01-30T08:16:26.568Z,11
2019-01-30T08:17:27.960Z,11
2019-01-30T08:18:29.357Z,11
2019-01-30T08:19:30.745Z,11
2019-01-30T08:20:32.339Z,11
2019-01-30T08:21:33.726Z,11
2019-01-30T08:22:35.114Z,11
2019-01-30T08:23:36.715Z,11
2019-01-30T08:24:37.853Z,11
2019-01-30T08:25:39.606Z,11
2019-01-30T08:26:40.854Z,11
2019-01-30T08:27:42.030Z,11
2019-01-30T08:28:43.360Z,11
2019-01-30T08:29:44.671Z,11
2019-01-30T08:30:46.068Z,11
2019-01-30T08:31:47.701Z,11
2019-01-30T08:32:48.861Z,11
2019-01-30T08:33:50.226Z,11
2019-01-30T08:34:51.612Z,11
2019-01-30T08:35:52.999Z,11
2019-01-30T08:36:54.398Z,11
2019-01-30T08:37:55.800Z,11
2019-01-30T08:38:57.184Z,11
2019-01-30T08:39:58.577Z,11
2019-01-30T08:40:59.965Z,11
2019-01-30T08:42:01.357Z,11
2019-01-30T08:43:02.755Z,11
2019-01-30T08:44:04.140Z,11
2019-01-30T08:45:05.538Z,16
2019-01-30T08:46:06.926Z,16
2019-01-30T08:47:08.317Z,16
2019-01-30T08:48:09.707Z,16
2019-01-30T08:49:11.094Z,16
2019-01-30T08:50:12.482Z,16
2019-01-30T08:51:14.628Z,16
2019-01-30T08:52:16.024Z,16
2019-01-30T08:53:17.413Z,16
2019-01-30T08:54:18.797Z,16
2019-01-30T08:55:20.187Z,16
2019-01-30T08:56:21.575Z,16
2019-01-30T08:57:22.961Z,16
2019-01-30T08:58:24.426Z,16
2019-01-30T08:59:25.826Z,16
2019-01-30T09:00:27.217Z,16
2019-01-30T09:01:28.611Z,16
2019-01-30T09:02:30.001Z,16
2019-01-30T09:03:31.394Z,16
2019-01-30T09:04:32.776Z,16
2019-01-30T09:05:34.161Z,11
2019-01-30T09:06:35.553Z,11
2019-01-30T09:07:43.898Z,11
2019-01-30T09:08:38.512Z,11
2019-01-30T09:09:39.904Z,11
2019-01-30T09:10:41.302Z,11
2019-01-30T09:11:42.692Z,11
2019-01-30T09:12:44.080Z,16
2019-01-30T09:13:45.467Z,16
2019-01-30T09:14:46.854Z,16
2019-01-30T09:15:48.265Z,16
2019-01-30T09:16:49.664Z,16
2019-01-30T09:17:51.055Z,16
2019-01-30T09:18:52.447Z,16
2019-01-30T09:19:53.868Z,16
2019-01-30T09:20:55.269Z,16
2019-01-30T09:21:56.659Z,16
2019-01-30T09:22:58.046Z,16
2019-01-30T09:23:59.445Z,16
2019-01-30T09:25:00.839Z,16
2019-01-30T09:26:02.224Z,16
2019-01-30T09:27:03.620Z,16
2019-01-30T09:28:05.008Z,16
2019-01-30T09:29:06.402Z,16
2019-01-30T09:30:07.792Z,16
2019-01-30T09:31:09.180Z,16
2019-01-30T09:32:10.571Z,16
2019-01-30T09:33:11.952Z,16
2019-01-30T09:34:13.343Z,16
2019-01-30T09:35:14.737Z,16
2019-01-30T09:36:16.127Z,16
2019-01-30T09:37:17.529Z,16
2019-01-30T09:38:18.911Z,16
2019-01-30T09:39:20.303Z,16
2019-01-30T09:40:21.700Z,16
2019-01-30T09:41:23.082Z,16
2019-01-30T09:42:24.482Z,16
2019-01-30T09:43:25.970Z,22
2019-01-30T09:44:27.357Z,22
2019-01-30T09:45:28.741Z,22
2019-01-30T09:46:30.136Z,22
2019-01-30T09:47:31.517Z,22
2019-01-30T09:48:32.902Z,22
2019-01-30T09:49:34.316Z,22
2019-01-30T09:50:35.742Z,28
2019-01-30T09:51:37.130Z,28
2019-01-30T09:52:38.518Z,28
2019-01-30T09:53:39.900Z,28
2019-01-30T09:54:41.293Z,28
2019-01-30T09:55:42.680Z,28
2019-01-30T09:56:44.069Z,28
2019-01-30T09:57:45.461Z,33
2019-01-30T09:58:46.815Z,33
2019-01-30T09:59:48.205Z,33
2019-01-30T10:00:49.592Z,33
2019-01-30T10:01:50.986Z,33
2019-01-30T10:02:52.377Z,33
2019-01-30T10:03:54.053Z,33
2019-01-30T10:04:55.438Z,33
2019-01-30T10:05:56.877Z,33
2019-01-30T10:06:58.272Z,33
2019-01-30T10:07:59.665Z,33
2019-01-30T10:09:01.053Z,33
2019-01-30T10:10:02.610Z,33
2019-01-30T10:11:04.001Z,33
2019-01-30T10:12:05.391Z,33
2019-01-30T10:13:06.795Z,33
2019-01-30T10:14:08.169Z,33
2019-01-30T10:15:09.563Z,33
2019-01-30T10:16:10.946Z,33
2019-01-30T10:17:12.339Z,33
2019-01-30T10:18:13.731Z,28
2019-01-30T10:19:15.128Z,28
2019-01-30T10:20:16.915Z,33
2019-01-30T10:21:18.300Z,33
2019-01-30T10:22:19.686Z,33
2019-01-30T10:23:21.072Z,33
2019-01-30T10:24:22.467Z,33
2019-01-30T10:25:23.870Z,33
2019-01-30T10:26:25.430Z,39
2019-01-30T10:27:26.826Z,39
2019-01-30T10:28:28.231Z,39
2019-01-30T10:29:29.622Z,39
2019-01-30T10:30:31.009Z,39
2019-01-30T10:31:32.397Z,39
2019-01-30T10:32:33.789Z,39
2019-01-30T10:33:35.211Z,39
2019-01-30T10:34:36.582Z,39
2019-01-30T10:35:37.973Z,39
2019-01-30T10:36:39.369Z,33
2019-01-30T10:37:41.636Z,33
2019-01-30T10:38:43.026Z,33
2019-01-30T10:39:44.431Z,33
2019-01-30T10:40:45.845Z,33
2019-01-30T10:41:47.238Z,33
2019-01-30T10:42:48.628Z,33
2019-01-30T10:43:50.019Z,33
2019-01-30T10:44:51.401Z,39
2019-01-30T10:45:52.792Z,39
2019-01-30T10:46:54.177Z,39
2019-01-30T10:47:55.562Z,39
2019-01-30T10:48:56.956Z,39
2019-01-30T10:49:58.346Z,39
2019-01-30T10:50:59.736Z,39
2019-01-30T10:52:01.130Z,39
2019-01-30T10:53:02.523Z,39
2019-01-30T10:54:03.906Z,33
2019-01-30T10:55:05.295Z,33
2019-01-30T10:56:06.682Z,39
2019-01-30T10:57:08.077Z,39
2019-01-30T10:58:09.471Z,39
2019-01-30T10:59:10.859Z,33
2019-01-30T11:00:12.246Z,33
2019-01-30T11:01:13.637Z,33
2019-01-30T11:02:15.025Z,33
2019-01-30T11:03:16.415Z,33
2019-01-30T11:04:17.806Z,33
2019-01-30T11:05:19.204Z,33
2019-01-30T11:06:20.595Z,33
2019-01-30T11:07:21.980Z,39
2019-01-30T11:08:23.368Z,39
2019-01-30T11:09:24.763Z,39
2019-01-30T11:10:26.283Z,39
2019-01-30T11:11:27.676Z,39
2019-01-30T11:12:29.071Z,39
2019-01-30T11:13:30.456Z,39
2019-01-30T11:14:31.851Z,39
2019-01-30T11:15:33.235Z,39
2019-01-30T11:16:34.623Z,39
2019-01-30T11:17:36.016Z,39
2019-01-30T11:18:37.407Z,39
2019-01-30T11:19:38.798Z,39
2019-01-30T11:20:40.183Z,39
2019-01-30T11:21:41.579Z,39
2019-01-30T11:22:42.969Z,39
2019-01-30T11:23:44.365Z,39
2019-01-30T11:24:45.761Z,39
2019-01-30T11:25:47.160Z,39
2019-01-30T11:26:48.571Z,39
2019-01-30T11:27:49.969Z,39
2019-01-30T11:28:51.359Z,39
2019-01-30T11:29:52.760Z,39
2019-01-30T11:30:54.155Z,39
2019-01-30T11:31:55.578Z,39
2019-01-30T11:32:57.084Z,39
2019-01-30T11:34:07.028Z,39
2019-01-30T11:34:59.853Z,39
2019-01-30T11:36:01.248Z,39
2019-01-30T11:37:02.746Z,33
2019-01-30T11:38:03.981Z,33
2019-01-30T11:39:05.391Z,33
2019-01-30T11:40:06.782Z,33
2019-01-30T11:41:08.163Z,33
2019-01-30T11:42:09.611Z,33
2019-01-30T11:43:10.987Z,33
2019-01-30T11:44:12.380Z,33
2019-01-30T11:45:13.770Z,33
2019-01-30T11:46:15.160Z,33
2019-01-30T11:47:16.548Z,33
2019-01-30T11:48:17.943Z,33
2019-01-30T11:49:19.335Z,33
2019-01-30T11:50:20.725Z,28
2019-01-30T11:51:22.116Z,28
2019-01-30T11:52:23.506Z,28
2019-01-30T11:53:24.897Z,28
2019-01-30T11:54:26.283Z,28
2019-01-30T11:55:27.675Z,28
2019-01-30T11:56:29.058Z,28
2019-01-30T11:57:30.443Z,33
2019-01-30T11:58:31.859Z,33
2019-01-30T11:59:33.245Z,33
2019-01-30T12:00:34.639Z,33
2019-01-30T12:01:36.037Z,28
2019-01-30T12:02:47.277Z,28
2019-01-30T12:03:38.786Z,28
2019-01-30T12:04:40.174Z,28
2019-01-30T12:05:41.560Z,22
2019-01-30T12:06:42.952Z,22
2019-01-30T12:07:44.344Z,22
2019-01-30T12:08:45.737Z,22
2019-01-30T12:09:47.118Z,22
2019-01-30T12:10:48.504Z,16
2019-01-30T12:11:49.892Z,16
2019-01-30T12:12:51.277Z,16
2019-01-30T12:13:52.664Z,16
2019-01-30T12:14:54.159Z,16
2019-01-30T12:15:55.536Z,16
2019-01-30T12:16:56.928Z,16
2019-01-30T12:17:58.314Z,16
2019-01-30T12:18:59.724Z,16
2019-01-30T12:20:01.110Z,16
2019-01-30T12:21:02.503Z,16
2019-01-30T12:22:03.893Z,22
2019-01-30T12:23:05.293Z,22
2019-01-30T12:24:06.767Z,22
2019-01-30T12:25:08.156Z,22
2019-01-30T12:26:09.545Z,28
2019-01-30T12:27:10.937Z,28
2019-01-30T12:28:12.326Z,28
2019-01-30T12:29:13.713Z,28
2019-01-30T12:30:15.100Z,28
2019-01-30T12:31:16.492Z,28
2019-01-30T12:32:21.499Z,28
2019-01-30T12:33:22.891Z,28
2019-01-30T12:34:28.337Z,28
2019-01-30T12:35:25.649Z,28
2019-01-30T12:36:27.035Z,22
2019-01-30T12:37:28.429Z,22
2019-01-30T12:38:29.823Z,22
2019-01-30T12:39:31.259Z,22
2019-01-30T12:40:32.655Z,22
2019-01-30T12:41:35.737Z,22
2019-01-30T12:42:35.411Z,22
2019-01-30T12:43:36.805Z,22
2019-01-30T12:44:38.186Z,22
2019-01-30T12:45:39.580Z,22
2019-01-30T12:46:40.961Z,22
2019-01-30T12:47:42.344Z,16
2019-01-30T12:48:43.724Z,22
2019-01-30T12:49:45.154Z,22
2019-01-30T12:50:46.506Z,22
2019-01-30T12:51:47.900Z,16
2019-01-30T12:52:49.291Z,16
2019-01-30T12:53:50.672Z,16
2019-01-30T12:54:52.056Z,16
2019-01-30T12:55:53.442Z,16
2019-01-30T12:56:54.822Z,16
2019-01-30T12:57:56.215Z,16
2019-01-30T12:58:57.598Z,16
2019-01-30T12:59:58.989Z,16
2019-01-30T13:01:00.404Z,16
2019-01-30T13:02:01.801Z,16
2019-01-30T13:03:03.165Z,16
2019-01-30T13:04:04.547Z,16
2019-01-30T13:05:05.934Z,11
2019-01-30T13:06:07.330Z,11
2019-01-30T13:07:08.723Z,11
2019-01-30T13:08:10.113Z,11
2019-01-30T13:09:11.496Z,11
2019-01-30T13:10:12.948Z,11
2019-01-30T13:11:14.397Z,11
2019-01-30T13:12:15.792Z,11
2019-01-30T13:13:17.199Z,11
2019-01-30T13:14:18.598Z,16
2019-01-30T13:15:19.981Z,16
2019-01-30T13:16:21.380Z,16
2019-01-30T13:17:22.777Z,16
2019-01-30T13:18:24.176Z,16
2019-01-30T13:19:25.572Z,16
2019-01-30T13:20:26.962Z,16
2019-01-30T13:21:28.357Z,16
2019-01-30T13:22:29.754Z,16
2019-01-30T13:23:31.139Z,16
2019-01-30T13:24:32.556Z,22
2019-01-30T13:25:33.952Z,22
2019-01-30T13:26:35.344Z,22
2019-01-30T13:27:36.832Z,22
2019-01-30T13:28:38.219Z,22
2019-01-30T13:29:39.668Z,16
2019-01-30T13:30:43.465Z,16
2019-01-30T13:31:42.468Z,16
2019-01-30T13:32:43.862Z,16
2019-01-30T13:33:45.263Z,16
2019-01-30T13:34:48.892Z,16
2019-01-30T13:35:48.017Z,16
2019-01-30T13:36:49.401Z,16
2019-01-30T13:37:50.791Z,16
2019-01-30T13:38:52.199Z,16
2019-01-30T13:39:53.569Z,16
2019-01-30T13:40:54.956Z,16
2019-01-30T13:41:56.366Z,16
2019-01-30T13:42:57.758Z,16
2019-01-30T13:43:59.143Z,16
2019-01-30T13:45:00.548Z,16
2019-01-30T13:46:05.344Z,16
2019-01-30T13:47:03.857Z,16
2019-01-30T13:48:05.244Z,16
2019-01-30T13:49:06.661Z,16
2019-01-30T13:50:08.028Z,16
2019-01-30T13:51:11.171Z,16
2019-01-30T13:52:10.772Z,16
2019-01-30T13:53:14.290Z,16
2019-01-30T13:54:13.537Z,16
2019-01-30T13:55:14.943Z,22
2019-01-30T13:56:16.369Z,22
2019-01-30T13:57:17.733Z,22
2019-01-30T13:58:19.123Z,22
2019-01-30T13:59:20.502Z,22
2019-01-30T14:00:21.912Z,28
2019-01-30T14:01:23.326Z,28
2019-01-30T14:02:24.759Z,28
2019-01-30T14:03:26.205Z,28
2019-01-30T14:04:27.583Z,22
2019-01-30T14:05:28.986Z,22
2019-01-30T14:06:30.392Z,28
2019-01-30T14:07:31.761Z,28
2019-01-30T14:08:33.166Z,28
2019-01-30T14:09:34.568Z,28
2019-01-30T14:10:35.982Z,28
2019-01-30T14:11:37.357Z,28
2019-01-30T14:12:38.751Z,22
2019-01-30T14:13:40.128Z,22
2019-01-30T14:14:41.609Z,22
2019-01-30T14:15:42.999Z,28
2019-01-30T14:16:44.389Z,22
2019-01-30T14:17:45.811Z,22
2019-01-30T14:18:47.175Z,22
2019-01-30T14:19:48.577Z,22
2019-01-30T14:20:49.954Z,16
2019-01-30T14:21:51.378Z,22
2019-01-30T14:22:52.775Z,22
2019-01-30T14:23:54.113Z,22
2019-01-30T14:24:55.529Z,22
2019-01-30T14:25:56.917Z,22
2019-01-30T14:26:58.324Z,16
2019-01-30T14:27:59.672Z,16
2019-01-30T14:29:01.054Z,16
2019-01-30T14:30:02.442Z,16
2019-01-30T14:31:03.840Z,16
2019-01-30T14:32:05.215Z,11
2019-01-30T14:33:06.610Z,11
2019-01-30T14:34:07.993Z,16
2019-01-30T14:35:10.693Z,16
2019-01-30T14:36:10.809Z,16
2019-01-30T14:37:12.080Z,16
2019-01-30T14:38:13.483Z,16
2019-01-30T14:39:14.882Z,16
2019-01-30T14:40:16.241Z,16
2019-01-30T14:41:17.670Z,16
2019-01-30T14:42:19.021Z,16
2019-01-30T14:43:20.410Z,16
2019-01-30T14:44:21.837Z,16
2019-01-30T14:45:23.185Z,16
2019-01-30T14:46:24.576Z,16
2019-01-30T14:47:26.003Z,16
2019-01-30T14:48:27.382Z,16
2019-01-30T14:49:28.771Z,16
2019-01-30T14:50:30.164Z,16
2019-01-30T14:51:31.556Z,16
2019-01-30T14:52:33.124Z,16
2019-01-30T14:53:34.404Z,16
2019-01-30T14:54:35.843Z,16
2019-01-30T14:55:37.268Z,11
2019-01-30T14:56:38.616Z,11
2019-01-30T14:57:39.997Z,11
2019-01-30T14:58:41.389Z,11
2019-01-30T14:59:42.812Z,11
2019-01-30T15:00:44.180Z,11
2019-01-30T15:01:45.577Z,11
2019-01-30T15:02:47.054Z,11
2019-01-30T15:03:48.311Z,11